Time;durP1;ratioP1;P1;durP2;ratioP2;P2;SDS_P1;SDS_P2;PMS_P1;PMS_P2;Temp;Humidity;BMP_temperature;BMP_pressure;BME280_temperature;BME280_humidity;BME280_pressure;Samples;Min_cycle;Max_cycle;Signal;HPM_P1;HPM_P2
2022/05/10 00:02:13;;;;;;;0.05;0.05;;;;;;;13.18;68.91;100467.59;7371931;19;21707;-60
2022/05/10 00:04:39;;;;;;;0.10;0.10;;;;;;;13.17;68.86;100471.13;7372395;19;20018;-61
2022/05/10 00:07:05;;;;;;;0.00;0.00;;;;;;;13.16;69.02;100485.16;7372280;19;20362;-61
2022/05/10 00:09:30;;;;;;;0.00;0.00;;;;;;;13.04;68.69;100480.38;7367106;19;20010;-60
2022/05/10 00:11:57;;;;;;;0.00;0.00;;;;;;;13.17;68.39;100502.59;7363706;19;20635;-60
2022/05/10 00:14:26;;;;;;;0.00;0.00;;;;;;;13.16;68.75;100493.00;7368614;19;20630;-60
2022/05/10 00:16:51;;;;;;;0.00;0.00;;;;;;;13.15;68.41;100493.06;7370893;19;20106;-61
2022/05/10 00:19:18;;;;;;;0.00;0.00;;;;;;;13.06;68.77;100480.28;7367992;19;20540;-60
2022/05/10 00:21:45;;;;;;;0.00;0.00;;;;;;;13.12;68.76;100483.53;7363171;19;20109;-60
2022/05/10 00:24:11;;;;;;;0.00;0.00;;;;;;;13.10;68.79;100489.78;7361079;19;21374;-61
2022/05/10 00:26:37;;;;;;;0.00;0.00;;;;;;;13.09;69.05;100491.53;7363303;19;21012;-62
2022/05/10 00:29:02;;;;;;;0.00;0.00;;;;;;;13.09;68.51;100498.56;7368508;19;20121;-61
2022/05/10 00:31:28;;;;;;;0.00;0.00;;;;;;;13.00;69.11;100473.50;7372168;19;20627;-59
2022/05/10 00:33:54;;;;;;;0.00;0.00;;;;;;;13.07;69.11;100490.72;7368161;19;20006;-60
2022/05/10 00:36:22;;;;;;;0.08;0.08;;;;;;;13.06;68.97;100489.00;7371966;19;20010;-61
2022/05/10 00:38:48;;;;;;;0.00;0.00;;;;;;;12.93;69.04;100458.94;7372180;19;20017;-61
2022/05/10 00:41:32;;;;;;;0.00;0.00;;;;;;;13.06;68.65;100482.91;7371482;19;20471;-60
2022/05/10 00:44:06;;;;;;;0.00;0.00;;;;;;;13.03;68.89;100478.66;7363908;19;20010;-61
2022/05/10 00:46:40;;;;;;;0.03;0.03;;;;;;;13.04;68.94;100474.28;7362663;19;20014;-61
2022/05/10 00:49:30;;;;;;;0.00;0.00;;;;;;;13.04;68.60;100475.13;7360359;19;20560;-61
2022/05/10 00:52:05;;;;;;;0.00;0.00;;;;;;;12.92;68.77;100454.59;7362043;19;20012;-60
2022/05/10 00:54:58;;;;;;;0.00;0.00;;;;;;;12.98;68.42;100464.88;7367015;19;20017;-60
2022/05/10 00:57:33;;;;;;;0.00;0.00;;;;;;;13.01;68.73;100475.22;7263275;19;2005739;-61
2022/05/10 01:00:12;;;;;;;0.00;0.00;;;;;;;13.02;68.15;100470.84;7370595;19;20807;-59
2022/05/10 01:02:58;;;;;;;0.05;0.05;;;;;;;13.02;68.40;100466.44;7362657;19;20017;-61
2022/05/10 01:05:36;;;;;;;0.00;0.00;;;;;;;13.02;68.92;100473.44;7361575;19;20022;-60
2022/05/10 01:08:12;;;;;;;0.10;0.10;;;;;;;12.92;68.11;100444.94;7367920;19;20026;-62
2022/05/10 01:10:58;;;;;;;0.00;0.00;;;;;;;12.98;68.27;100457.00;7360570;19;20021;-62
2022/05/10 01:13:28;;;;;;;0.10;0.10;;;;;;;12.88;68.62;100447.75;7359111;19;20010;-63
2022/05/10 01:16:06;;;;;;;0.00;0.00;;;;;;;12.93;68.34;100445.84;7360876;19;22050;-61
2022/05/10 01:18:32;;;;;;;0.10;0.10;;;;;;;12.96;68.84;100456.19;7369448;19;20018;-60
2022/05/10 01:21:12;;;;;;;0.00;0.00;;;;;;;12.87;68.54;100444.25;7369600;19;21079;-60
2022/05/10 01:24:13;;;;;;;0.00;0.00;;;;;;;12.97;67.63;100453.50;7370139;19;20093;-59
2022/05/10 01:26:47;;;;;;;0.00;0.00;;;;;;;12.95;68.09;100457.09;7258113;19;2004138;-62
2022/05/10 01:29:21;;;;;;;0.08;0.08;;;;;;;12.93;68.62;100454.53;7360441;19;20948;-62
2022/05/10 01:33:29;;;;;;;0.00;0.00;;;;;;;12.88;68.50;100453.00;7360567;19;20015;-60
2022/05/10 01:34:37;;;;;;;0.00;0.00;;;;;;;12.89;68.40;100463.44;7356242;19;20007;-60
2022/05/10 01:37:08;;;;;;;0.00;0.00;;;;;;;12.88;68.33;100453.84;7371651;19;20014;-62
2022/05/10 01:39:59;;;;;;;0.10;0.10;;;;;;;12.87;67.68;100452.13;7367570;19;20010;-61
2022/05/10 01:42:42;;;;;;;0.00;0.00;;;;;;;12.87;67.97;100435.53;7261336;19;2004278;-60
2022/05/10 01:45:31;;;;;;;0.10;0.10;;;;;;;12.87;67.63;100430.31;7359671;19;20593;-59
2022/05/10 01:48:00;;;;;;;0.00;0.00;;;;;;;12.82;68.75;100419.13;7364868;19;20011;-62
2022/05/10 01:50:35;;;;;;;0.00;0.00;;;;;;;12.82;68.06;100421.75;7362652;19;20024;-60
2022/05/10 01:53:14;;;;;;;0.10;0.10;;;;;;;12.81;68.09;100425.28;7364002;19;20466;-62
2022/05/10 01:55:43;;;;;;;0.00;0.00;;;;;;;12.79;68.12;100432.38;7370563;19;20123;-60
2022/05/10 01:58:24;;;;;;;0.08;0.08;;;;;;;12.77;67.64;100429.78;7363039;19;20897;-60
2022/05/10 02:00:56;;;;;;;0.00;0.00;;;;;;;12.75;68.39;100434.22;7355445;19;20023;-61
2022/05/10 02:03:34;;;;;;;0.10;0.10;;;;;;;12.65;67.70;100414.50;7366189;19;20011;-61
2022/05/10 02:06:06;;;;;;;0.00;0.00;;;;;;;12.72;67.70;100427.34;7367078;19;20031;-60
2022/05/10 02:08:38;;;;;;;0.00;0.00;;;;;;;12.57;67.94;100401.72;7366349;19;20052;-62
2022/05/10 02:11:09;;;;;;;0.00;0.00;;;;;;;12.68;68.02;100412.66;7364384;19;20577;-62
2022/05/10 02:13:50;;;;;;;0.00;0.00;;;;;;;12.64;68.21;100413.66;7367824;19;20014;-61
2022/05/10 02:16:22;;;;;;;0.00;0.00;;;;;;;12.65;68.11;100425.00;7365387;19;20736;-61
2022/05/10 02:18:55;;;;;;;0.00;0.00;;;;;;;12.55;68.13;100413.97;7361454;19;20048;-60
2022/05/10 02:21:26;;;;;;;0.00;0.00;;;;;;;12.55;68.37;100408.75;7359000;19;20028;-59
2022/05/10 02:24:16;;;;;;;0.00;0.00;;;;;;;12.62;67.90;100420.72;7362124;19;20012;-60
2022/05/10 02:26:48;;;;;;;0.00;0.00;;;;;;;12.59;68.50;100418.22;7365027;19;20014;-59
2022/05/10 02:29:22;;;;;;;0.00;0.00;;;;;;;12.58;68.65;100424.38;7365537;19;20046;-62
2022/05/10 02:34:48;;;;;;;0.00;0.00;;;;;;;12.55;68.50;100407.91;7255700;19;2004130;-60
2022/05/10 02:37:14;;;;;;;0.00;0.00;;;;;;;12.56;68.92;100415.69;7356534;19;20018;-62
2022/05/10 02:39:40;;;;;;;0.00;0.00;;;;;;;12.37;68.29;100383.22;7355272;19;20007;-61
2022/05/10 02:42:10;;;;;;;0.05;0.05;;;;;;;12.42;67.78;100381.31;7359630;19;20014;-61
2022/05/10 02:44:37;;;;;;;0.00;0.00;;;;;;;12.53;68.47;100405.34;7365042;19;20576;-60
2022/05/10 02:47:05;;;;;;;0.00;0.00;;;;;;;12.52;68.60;100398.41;7365481;19;20010;-61
2022/05/10 02:49:31;;;;;;;0.00;0.00;;;;;;;12.43;68.32;100386.47;7365760;19;20010;-60
2022/05/10 02:51:56;;;;;;;0.00;0.00;;;;;;;12.48;68.43;100399.41;7364206;19;20011;-60
2022/05/10 02:54:21;;;;;;;0.00;0.00;;;;;;;12.46;68.29;100398.59;7365151;19;20019;-61
2022/05/10 02:56:47;;;;;;;0.00;0.00;;;;;;;12.48;68.63;100409.88;7365540;19;20021;-61
2022/05/10 02:59:21;;;;;;;0.00;0.00;;;;;;;12.46;68.62;100415.16;7360088;19;20568;-61
2022/05/10 03:02:09;;;;;;;0.00;0.00;;;;;;;12.41;67.65;100387.41;7355380;19;20007;-61
2022/05/10 03:04:41;;;;;;;0.00;0.00;;;;;;;12.45;68.00;100402.97;7359124;19;20002;-62
2022/05/10 03:07:08;;;;;;;0.03;0.03;;;;;;;12.41;68.21;100390.88;7357130;19;20002;-62
2022/05/10 03:09:33;;;;;;;0.00;0.00;;;;;;;12.45;67.66;100404.75;7357039;19;20026;-61
2022/05/10 03:12:05;;;;;;;0.00;0.00;;;;;;;12.45;68.28;100402.13;7358826;19;20448;-62
2022/05/10 03:14:30;;;;;;;0.00;0.00;;;;;;;12.43;67.84;100403.94;7366251;19;20582;-60
2022/05/10 03:16:56;;;;;;;0.00;0.00;;;;;;;12.38;67.67;100395.41;7367140;19;20007;-60
2022/05/10 03:19:21;;;;;;;0.00;0.00;;;;;;;12.40;67.94;100397.03;7357385;19;20046;-60
2022/05/10 03:21:47;;;;;;;0.00;0.00;;;;;;;12.33;68.27;100386.84;7375041;19;20039;-59
2022/05/10 03:24:12;;;;;;;0.08;0.08;;;;;;;12.35;68.06;100391.13;7373310;19;20007;-62
2022/05/10 03:26:43;;;;;;;0.00;0.00;;;;;;;12.36;67.84;100392.81;7369628;19;20014;-63
2022/05/10 03:29:09;;;;;;;0.00;0.00;;;;;;;12.34;67.84;100393.78;7365608;19;20058;-61
2022/05/10 03:31:34;;;;;;;0.03;0.03;;;;;;;12.34;67.88;100393.78;7375536;19;20094;-60
2022/05/10 03:36:43;;;;;;;0.03;0.03;;;;;;;12.25;68.27;100379.25;7374675;19;20052;-60
2022/05/10 03:39:09;;;;;;;0.00;0.00;;;;;;;12.17;68.18;100368.22;7368740;19;20555;-61
2022/05/10 03:41:34;;;;;;;0.00;0.00;;;;;;;12.32;67.98;100395.63;7365612;19;20479;-61
2022/05/10 03:44:00;;;;;;;0.00;0.00;;;;;;;12.33;67.98;100386.84;7366896;19;20806;-61
2022/05/10 03:46:26;;;;;;;0.00;0.00;;;;;;;12.33;67.08;100394.72;7366015;19;20010;-60
2022/05/10 03:48:51;;;;;;;0.00;0.00;;;;;;;12.30;67.44;100389.56;7373755;19;20476;-61
2022/05/10 03:51:17;;;;;;;0.00;0.00;;;;;;;12.31;67.71;100388.66;7373839;19;20069;-60
2022/05/10 03:53:43;;;;;;;0.00;0.00;;;;;;;12.29;67.85;100391.34;7375264;19;20742;-60
2022/05/10 03:56:09;;;;;;;0.10;0.10;;;;;;;12.24;67.34;100387.16;7374280;19;20010;-62
2022/05/10 03:58:35;;;;;;;0.00;0.00;;;;;;;12.27;67.59;100392.31;7373041;19;20018;-61
2022/05/10 04:01:00;;;;;;;0.10;0.10;;;;;;;12.26;67.78;100390.56;7372005;19;20034;-62
2022/05/10 04:03:25;;;;;;;0.00;0.00;;;;;;;12.22;67.35;100379.38;7366417;19;20022;-61
2022/05/10 04:05:51;;;;;;;0.00;0.00;;;;;;;12.23;68.04;100385.47;7364038;19;20009;-62
2022/05/10 04:08:16;;;;;;;0.00;0.00;;;;;;;12.11;67.96;100378.88;7369538;19;20021;-60
2022/05/10 04:10:42;;;;;;;0.00;0.00;;;;;;;12.18;67.72;100383.84;7373585;19;20002;-61
2022/05/10 04:13:10;;;;;;;0.00;0.00;;;;;;;12.18;68.00;100377.75;7373242;19;20017;-62
2022/05/10 04:15:36;;;;;;;0.00;0.00;;;;;;;12.16;67.82;100384.78;7374405;19;20649;-60
2022/05/10 04:18:02;;;;;;;0.08;0.08;;;;;;;12.06;68.23;100363.31;7372007;19;20016;-62
2022/05/10 04:20:27;;;;;;;0.10;0.10;;;;;;;12.15;68.24;100385.72;7372636;19;20010;-61
2022/05/10 04:22:52;;;;;;;0.00;0.00;;;;;;;12.15;67.58;100383.94;7373621;19;20454;-61
2022/05/10 04:25:21;;;;;;;0.00;0.00;;;;;;;12.13;67.43;100375.31;7373268;19;20016;-61
2022/05/10 04:27:47;;;;;;;0.00;0.00;;;;;;;12.06;68.11;100371.16;7372992;19;20041;-62
2022/05/10 04:30:13;;;;;;;0.00;0.00;;;;;;;12.00;67.91;100363.53;7371126;19;20044;-61
2022/05/10 04:32:38;;;;;;;0.10;0.10;;;;;;;12.08;67.97;100379.00;7372740;19;20082;-61
2022/05/10 04:35:05;;;;;;;0.00;0.00;;;;;;;12.12;67.78;100384.06;7371429;19;20395;-61
2022/05/10 04:37:30;;;;;;;0.00;0.00;;;;;;;12.10;67.93;100391.09;7372947;19;20797;-60
2022/05/10 04:42:43;;;;;;;0.00;0.00;;;;;;;12.09;68.05;100378.94;7372187;19;20671;-59
2022/05/10 04:45:08;;;;;;;0.00;0.00;;;;;;;12.02;67.48;100373.97;7372871;19;20010;-60
2022/05/10 04:47:34;;;;;;;0.10;0.10;;;;;;;12.07;68.14;100385.13;7366916;19;20013;-60
2022/05/10 04:50:01;;;;;;;0.00;0.00;;;;;;;12.00;67.84;100374.00;7364026;19;20023;-60
2022/05/10 04:52:26;;;;;;;0.00;0.00;;;;;;;12.06;67.59;100383.41;7368904;19;20049;-61
2022/05/10 04:54:52;;;;;;;0.00;0.00;;;;;;;12.06;67.90;100379.00;7373799;19;20020;-60
2022/05/10 04:57:17;;;;;;;0.00;0.00;;;;;;;12.04;67.96;100378.22;7369701;19;20007;-61
2022/05/10 04:59:42;;;;;;;0.00;0.00;;;;;;;12.05;68.40;100382.56;7372356;19;20010;-61
2022/05/10 05:02:08;;;;;;;0.00;0.00;;;;;;;12.05;67.47;100377.31;7374566;19;20006;-60
2022/05/10 05:04:33;;;;;;;0.00;0.00;;;;;;;12.06;67.74;100384.25;7368193;19;20026;-62
2022/05/10 05:06:58;;;;;;;0.00;0.00;;;;;;;12.07;68.21;100380.75;7368563;19;20005;-60
2022/05/10 05:09:24;;;;;;;0.00;0.00;;;;;;;12.05;68.17;100386.94;7361706;19;20010;-62
2022/05/10 05:11:49;;;;;;;0.00;0.00;;;;;;;12.04;67.76;100374.75;7372464;19;20125;-60
2022/05/10 05:14:14;;;;;;;0.00;0.00;;;;;;;12.07;68.31;100372.91;7370703;19;20027;-61
2022/05/10 05:16:40;;;;;;;0.00;0.00;;;;;;;12.07;68.34;100375.53;7369701;19;20010;-59
2022/05/10 05:19:05;;;;;;;0.00;0.00;;;;;;;12.08;68.15;100382.47;7363889;19;20033;-62
2022/05/10 05:21:31;;;;;;;0.00;0.00;;;;;;;11.96;68.22;100346.22;7363248;19;20011;-60
2022/05/10 05:23:56;;;;;;;0.00;0.00;;;;;;;12.08;68.30;100372.00;7368214;19;20045;-61
2022/05/10 05:26:22;;;;;;;0.05;0.05;;;;;;;12.04;68.32;100359.91;7364429;19;20006;-62
2022/05/10 05:28:47;;;;;;;0.03;0.03;;;;;;;12.13;68.32;100370.06;7363016;19;20022;-61
2022/05/10 05:31:13;;;;;;;0.00;0.00;;;;;;;12.20;67.61;100382.03;7372405;19;20109;-61
2022/05/10 05:33:39;;;;;;;0.00;0.00;;;;;;;12.26;68.35;100374.88;7366670;19;20026;-62
2022/05/10 05:36:05;;;;;;;0.10;0.10;;;;;;;12.19;68.81;100359.38;7364319;19;20332;-62
2022/05/10 05:38:30;;;;;;;0.03;0.03;;;;;;;12.35;68.41;100371.94;7370408;19;20002;-59
2022/05/10 05:40:55;;;;;;;0.00;0.00;;;;;;;12.39;68.11;100368.31;7371027;19;20018;-62
2022/05/10 05:43:22;;;;;;;0.00;0.00;;;;;;;12.45;67.68;100386.41;7370475;19;20007;-60
2022/05/10 05:45:50;;;;;;;0.10;0.10;;;;;;;12.46;68.56;100388.97;7371271;19;20044;-61
2022/05/10 05:48:16;;;;;;;0.00;0.00;;;;;;;12.41;68.09;100374.31;7372103;19;20006;-60
2022/05/10 05:50:41;;;;;;;0.00;0.00;;;;;;;12.52;67.99;100392.28;7368723;19;20031;-62
2022/05/10 05:53:07;;;;;;;0.00;0.00;;;;;;;12.54;68.19;100391.31;7368811;19;20010;-60
2022/05/10 05:55:32;;;;;;;0.00;0.00;;;;;;;12.55;67.88;100390.41;7371894;19;20010;-59
2022/05/10 05:57:57;;;;;;;0.10;0.10;;;;;;;12.59;67.76;100383.31;7368916;19;20016;-61
2022/05/10 06:00:25;;;;;;;0.00;0.00;;;;;;;12.62;68.04;100377.94;7360771;19;20037;-63
2022/05/10 06:02:51;;;;;;;0.00;0.00;;;;;;;12.62;67.49;100373.59;7365157;19;20365;-60
2022/05/10 06:05:17;;;;;;;0.00;0.00;;;;;;;12.66;67.68;100384.78;7372645;19;20015;-60
2022/05/10 06:07:42;;;;;;;0.00;0.00;;;;;;;12.69;68.03;100382.91;7368587;19;20002;-60
2022/05/10 06:10:10;;;;;;;0.00;0.00;;;;;;;12.79;68.00;100379.97;7365530;19;20344;-61
2022/05/10 06:12:36;;;;;;;0.00;0.00;;;;;;;12.83;67.66;100384.19;7358714;19;20014;-60
2022/05/10 06:15:07;;;;;;;0.00;0.00;;;;;;;12.85;67.22;100379.72;7370709;19;20104;-60
2022/05/10 06:17:33;;;;;;;0.00;0.00;;;;;;;12.91;67.51;100379.50;7370451;19;20018;-61
2022/05/10 06:19:59;;;;;;;0.00;0.00;;;;;;;12.94;67.29;100380.25;7364774;19;20753;-62
2022/05/10 06:22:24;;;;;;;0.00;0.00;;;;;;;13.00;67.23;100376.53;7357734;19;20010;-61
2022/05/10 06:24:49;;;;;;;0.00;0.00;;;;;;;13.04;67.40;100369.41;7362381;19;20018;-61
2022/05/10 06:27:16;;;;;;;0.00;0.00;;;;;;;13.07;67.44;100374.53;7356477;19;20006;-62
2022/05/10 06:29:43;;;;;;;0.00;0.00;;;;;;;13.15;67.36;100370.69;7355247;19;20633;-61
2022/05/10 06:32:11;;;;;;;0.00;0.00;;;;;;;13.23;67.08;100366.06;7362454;19;20469;-60
2022/05/10 06:34:39;;;;;;;0.00;0.00;;;;;;;13.33;67.14;100370.91;7354958;19;20024;-61
2022/05/10 06:38:15;;;;;;;0.00;0.00;;;;;;;13.39;66.62;100370.72;7364951;19;20083;-62
2022/05/10 06:39:51;;;;;;;0.00;0.00;;;;;;;13.48;66.31;100367.69;7369602;19;20006;-60
2022/05/10 06:42:24;;;;;;;0.00;0.00;;;;;;;13.56;66.21;100370.88;7363377;19;20395;-62
2022/05/10 06:44:49;;;;;;;0.00;0.00;;;;;;;13.60;65.83;100372.47;7367358;19;20091;-60
2022/05/10 06:47:15;;;;;;;0.10;0.10;;;;;;;13.63;65.68;100369.69;7365439;19;20090;-61
2022/05/10 06:49:40;;;;;;;0.00;0.00;;;;;;;13.65;65.96;100367.88;7359104;19;20010;-61
2022/05/10 06:52:05;;;;;;;0.00;0.00;;;;;;;13.67;65.66;100365.19;7353469;19;20014;-61
2022/05/10 06:54:31;;;;;;;0.00;0.00;;;;;;;13.67;65.99;100360.78;7366998;19;21366;-60
2022/05/10 06:56:56;;;;;;;0.00;0.00;;;;;;;13.70;65.94;100359.81;7367465;19;20010;-61
2022/05/10 06:59:21;;;;;;;0.00;0.00;;;;;;;13.71;65.95;100356.28;7362960;19;20019;-60
2022/05/10 07:01:46;;;;;;;0.00;0.00;;;;;;;13.76;65.78;100370.91;7359815;19;20744;-62
2022/05/10 07:04:12;;;;;;;0.00;0.00;;;;;;;13.79;65.63;100363.81;7370047;19;20010;-61
2022/05/10 07:06:37;;;;;;;0.00;0.00;;;;;;;13.89;66.03;100375.66;7372271;19;20013;-60
2022/05/10 07:09:03;;;;;;;0.00;0.00;;;;;;;13.97;65.68;100363.06;7372891;19;20007;-61
2022/05/10 07:11:28;;;;;;;0.00;0.00;;;;;;;13.97;65.95;100352.56;7369798;19;20027;-61
2022/05/10 07:13:53;;;;;;;0.00;0.00;;;;;;;14.15;65.86;100371.94;7363562;19;20006;-61
2022/05/10 07:16:19;;;;;;;0.00;0.00;;;;;;;14.17;65.53;100363.06;7366814;19;20019;-61
2022/05/10 07:18:44;;;;;;;0.00;0.00;;;;;;;14.11;64.99;100344.13;7368866;19;20010;-60
2022/05/10 07:21:10;;;;;;;0.10;0.10;;;;;;;14.30;65.63;100370.44;7363242;19;20014;-60
2022/05/10 07:23:36;;;;;;;0.00;0.00;;;;;;;14.33;64.62;100357.16;7371649;19;20015;-60
2022/05/10 07:26:03;;;;;;;0.00;0.00;;;;;;;14.42;64.98;100380.41;7372407;19;20046;-60
2022/05/10 07:28:29;;;;;;;0.10;0.10;;;;;;;14.47;64.90;100383.69;7373440;19;20356;-60
2022/05/10 07:30:58;;;;;;;0.00;0.00;;;;;;;14.48;66.00;100386.25;7372941;19;20003;-61
2022/05/10 07:33:25;;;;;;;0.10;0.10;;;;;;;14.54;65.89;100385.13;7373276;19;20040;-61
2022/05/10 07:38:36;;;;;;;0.00;0.00;;;;;;;14.52;65.79;100373.84;7371084;19;20131;-60
2022/05/10 07:41:01;;;;;;;0.10;0.10;;;;;;;14.38;65.69;100357.81;7363596;19;21391;-60
2022/05/10 07:43:27;;;;;;;0.00;0.00;;;;;;;14.46;65.17;100388.09;7365136;19;20018;-61
2022/05/10 07:45:54;;;;;;;0.10;0.10;;;;;;;14.37;65.73;100361.38;7366906;19;20010;-61
2022/05/10 07:48:19;;;;;;;0.10;0.10;;;;;;;14.43;65.57;100382.97;7370602;19;20014;-61
2022/05/10 07:50:45;;;;;;;0.00;0.00;;;;;;;14.45;65.57;100368.00;7364130;19;20007;-61
2022/05/10 07:53:12;;;;;;;0.05;0.05;;;;;;;14.47;65.79;100358.28;7372228;19;20037;-59
2022/05/10 07:55:37;;;;;;;0.10;0.10;;;;;;;14.51;65.57;100364.28;7374862;19;20040;-60
2022/05/10 07:58:06;;;;;;;0.00;0.00;;;;;;;14.56;64.93;100367.56;7374280;19;20031;-61
2022/05/10 08:00:37;;;;;;;0.10;0.10;;;;;;;14.65;65.15;100377.66;7374212;19;20668;-60
2022/05/10 08:03:11;;;;;;;0.00;0.00;;;;;;;14.63;64.98;100347.94;7373525;19;20030;-61
2022/05/10 08:05:36;;;;;;;0.00;0.00;;;;;;;14.77;64.40;100361.31;7371201;19;20078;-60
2022/05/10 08:08:02;;;;;;;0.10;0.10;;;;;;;14.84;64.32;100363.66;7375369;19;20111;-60
2022/05/10 08:10:28;;;;;;;0.00;0.00;;;;;;;14.91;64.14;100363.34;7367564;19;20006;-60
2022/05/10 08:12:54;;;;;;;0.10;0.10;;;;;;;14.97;63.51;100362.19;7360558;19;22627;-61
2022/05/10 08:15:20;;;;;;;0.00;0.00;;;;;;;15.05;63.11;100352.16;7363642;19;20751;-62
2022/05/10 08:17:45;;;;;;;0.10;0.10;;;;;;;15.12;63.12;100366.75;7358741;19;20102;-61
2022/05/10 08:20:11;;;;;;;0.00;0.00;;;;;;;15.18;62.05;100361.19;7360605;19;20407;-61
2022/05/10 08:22:36;;;;;;;0.00;0.00;;;;;;;15.24;61.95;100363.53;7359953;19;20022;-59
2022/05/10 08:25:03;;;;;;;0.10;0.10;;;;;;;15.27;61.74;100344.13;7371909;19;20018;-60
2022/05/10 08:27:28;;;;;;;0.00;0.00;;;;;;;15.39;61.24;100358.47;7361349;19;20030;-61
2022/05/10 08:29:54;;;;;;;0.00;0.00;;;;;;;15.41;61.21;100351.31;7358710;19;20679;-60
2022/05/10 08:32:19;;;;;;;0.00;0.00;;;;;;;15.44;60.86;100359.09;7366478;19;21439;-62
2022/05/10 08:34:44;;;;;;;0.00;0.00;;;;;;;15.44;60.34;100357.31;7368966;19;20006;-61
2022/05/10 08:37:10;;;;;;;0.00;0.00;;;;;;;15.46;60.58;100368.63;7369636;19;20042;-59
2022/05/10 08:39:35;;;;;;;0.00;0.00;;;;;;;15.48;60.45;100368.53;7368363;19;20014;-61
2022/05/10 08:42:08;;;;;;;0.00;0.00;;;;;;;15.46;60.41;100383.53;7370633;19;20010;-60
2022/05/10 08:44:39;;;;;;;0.00;0.00;;;;;;;15.58;60.22;100375.06;7371490;19;20123;-60
2022/05/10 08:47:07;;;;;;;0.10;0.10;;;;;;;15.58;59.26;100365.38;7371682;19;20093;-61
2022/05/10 08:49:33;;;;;;;0.00;0.00;;;;;;;15.65;58.26;100373.88;7368816;19;20037;-61
2022/05/10 08:51:58;;;;;;;0.00;0.00;;;;;;;15.70;58.39;100374.50;7364460;19;20849;-60
2022/05/10 08:54:26;;;;;;;0.00;0.00;;;;;;;15.72;58.42;100362.13;7357358;19;20013;-62
2022/05/10 08:56:55;;;;;;;0.00;0.00;;;;;;;15.76;58.39;100358.41;7367495;19;20014;-61
2022/05/10 08:59:27;;;;;;;0.00;0.00;;;;;;;15.77;58.37;100360.13;7368687;19;20014;-60
2022/05/10 09:02:03;;;;;;;0.00;0.00;;;;;;;15.81;58.57;100366.94;7369881;19;20023;-60
2022/05/10 09:05:00;;;;;;;0.05;0.05;;;;;;;15.88;58.79;100361.38;7362437;19;20593;-61
2022/05/10 09:07:52;;;;;;;0.10;0.10;;;;;;;16.04;59.60;100372.81;7258416;19;2004571;-61
2022/05/10 09:10:24;;;;;;;0.10;0.10;;;;;;;16.21;58.80;100372.81;7368073;19;20031;-61
2022/05/10 09:13:03;;;;;;;0.10;0.10;;;;;;;16.46;57.92;100368.91;7360435;19;20011;-60
2022/05/10 09:15:38;;;;;;;0.00;0.00;;;;;;;16.56;57.72;100370.97;7360760;19;20010;-61
2022/05/10 09:18:36;;;;;;;0.00;0.00;;;;;;;16.67;57.54;100372.19;7356711;19;20410;-60
2022/05/10 09:21:13;;;;;;;0.00;0.00;;;;;;;16.63;56.81;100371.53;7264534;19;2004136;-61
2022/05/10 09:23:42;;;;;;;0.10;0.10;;;;;;;16.63;56.93;100366.25;7359736;19;20014;-61
2022/05/10 09:26:13;;;;;;;0.08;0.08;;;;;;;16.79;56.93;100363.69;7360179;19;20010;-60
2022/05/10 09:28:53;;;;;;;0.10;0.10;;;;;;;16.92;56.72;100382.31;7360590;19;20017;-60
2022/05/10 09:36:53;;;;;;;0.10;0.10;;;;;;;17.19;54.66;100362.34;7360140;19;20026;-61
2022/05/10 09:39:43;;;;;;;0.00;0.00;;;;;;;17.28;54.92;100361.81;7358635;19;20023;-60
2022/05/10 09:42:08;;;;;;;0.00;0.00;;;;;;;17.28;52.31;100359.19;7260346;19;2004211;-61
2022/05/10 09:44:33;;;;;;;0.10;0.10;;;;;;;17.37;53.17;100377.13;7368600;19;20017;-61
2022/05/10 09:47:18;;;;;;;0.00;0.00;;;;;;;17.50;53.64;100365.91;7369502;19;20010;-62
2022/05/10 09:49:44;;;;;;;0.10;0.10;;;;;;;17.55;52.57;100388.47;7368386;19;20504;-62
2022/05/10 09:52:26;;;;;;;0.00;0.00;;;;;;;17.82;52.32;100374.66;7367529;19;20016;-61
2022/05/10 09:54:56;;;;;;;0.05;0.05;;;;;;;17.97;51.22;100372.91;7369698;19;20019;-60
2022/05/10 09:57:35;;;;;;;0.10;0.10;;;;;;;18.24;51.45;100360.69;7368693;19;20118;-61
2022/05/10 10:00:01;;;;;;;0.05;0.05;;;;;;;18.36;49.66;100362.63;7368177;19;20013;-61
2022/05/10 10:02:37;;;;;;;0.08;0.08;;;;;;;18.53;51.03;100361.56;7368479;19;20006;-61
2022/05/10 10:05:18;;;;;;;0.00;0.00;;;;;;;18.58;50.51;100358.66;7369506;19;20010;-60
2022/05/10 10:07:55;;;;;;;0.10;0.10;;;;;;;18.64;50.32;100360.91;7366569;19;20086;-61
2022/05/10 10:10:23;;;;;;;0.00;0.00;;;;;;;18.76;48.75;100367.28;7367363;19;20006;-62
2022/05/10 10:12:49;;;;;;;0.10;0.10;;;;;;;18.91;48.89;100353.97;7367564;19;20006;-60
2022/05/10 10:15:20;;;;;;;0.00;0.00;;;;;;;19.17;49.33;100359.41;7365831;19;20017;-62
2022/05/10 10:17:53;;;;;;;0.10;0.10;;;;;;;19.48;49.58;100381.25;7359754;19;20770;-62
2022/05/10 10:20:21;;;;;;;0.10;0.10;;;;;;;19.79;48.96;100375.66;7362032;19;20411;-62
2022/05/10 10:22:50;;;;;;;0.10;0.10;;;;;;;20.08;47.11;100356.97;7368625;19;20006;-61
2022/05/10 10:25:22;;;;;;;0.10;0.10;;;;;;;20.38;45.09;100357.53;7358431;19;20030;-61
2022/05/10 10:27:54;;;;;;;0.10;0.10;;;;;;;20.72;45.14;100357.84;7357973;19;20043;-60
2022/05/10 10:30:29;;;;;;;0.10;0.10;;;;;;;21.03;46.15;100355.66;7367180;19;20020;-61
2022/05/10 10:33:27;;;;;;;0.10;0.10;;;;;;;21.40;46.19;100352.09;7368612;19;20015;-61
2022/05/10 10:35:59;;;;;;;0.10;0.10;;;;;;;21.64;42.84;100368.00;7263132;19;2005366;-59
2022/05/10 10:38:35;;;;;;;0.10;0.10;;;;;;;21.88;42.07;100368.00;7367262;19;20447;-61
2022/05/10 10:41:13;;;;;;;0.10;0.10;;;;;;;21.99;43.26;100349.41;7358984;19;20588;-61
2022/05/10 10:44:21;;;;;;;0.10;0.10;;;;;;;22.40;43.38;100364.03;7359715;19;20406;-62
2022/05/10 10:46:52;;;;;;;0.10;0.10;;;;;;;22.43;38.40;100358.50;7264606;19;2004276;-59
2022/05/10 10:49:29;;;;;;;0.10;0.10;;;;;;;22.53;39.78;100354.16;7366525;19;20021;-62
2022/05/10 10:51:54;;;;;;;0.10;0.10;;;;;;;22.51;38.34;100349.94;7366583;19;20036;-61
2022/05/10 10:54:22;;;;;;;0.10;0.10;;;;;;;22.52;37.51;100354.28;7367142;19;20400;-61
2022/05/10 10:57:16;;;;;;;0.10;0.10;;;;;;;22.59;40.62;100371.44;7356696;19;20892;-62
2022/05/10 10:59:51;;;;;;;0.10;0.10;;;;;;;22.64;38.68;100352.47;7260114;19;2004467;-61
2022/05/10 11:02:34;;;;;;;0.10;0.10;;;;;;;22.96;39.84;100372.09;7364712;19;20020;-60
2022/05/10 11:05:34;;;;;;;0.00;0.00;;;;;;;23.21;39.75;100362.97;7351786;19;20006;-61
2022/05/10 11:08:11;;;;;;;0.10;0.10;;;;;;;23.50;38.69;100360.59;7257476;19;2004180;-61
2022/05/10 11:10:47;;;;;;;0.10;0.10;;;;;;;23.71;37.79;100362.50;7360256;19;20031;-60
2022/05/10 11:13:33;;;;;;;0.10;0.10;;;;;;;23.92;37.16;100387.38;7357913;19;20824;-61
2022/05/10 11:16:16;;;;;;;0.10;0.10;;;;;;;24.18;37.64;100371.00;7356370;19;20014;-60
2022/05/10 11:19:03;;;;;;;0.10;0.10;;;;;;;24.44;36.61;100383.00;7364773;19;20370;-61
2022/05/10 11:21:46;;;;;;;0.00;0.00;;;;;;;24.59;35.48;100362.16;7364961;19;20015;-60
2022/05/10 11:24:20;;;;;;;0.10;0.10;;;;;;;24.68;34.55;100379.19;7366343;19;20013;-62
2022/05/10 11:26:48;;;;;;;0.20;0.20;;;;;;;24.84;35.26;100382.22;7358322;19;20093;-62
2022/05/10 11:29:36;;;;;;;0.10;0.10;;;;;;;25.14;35.41;100364.47;7354801;19;20462;-62
2022/05/10 11:32:23;;;;;;;0.10;0.10;;;;;;;25.38;35.53;100359.59;7362306;19;20007;-61
2022/05/10 11:35:03;;;;;;;0.10;0.10;;;;;;;25.51;33.24;100384.25;7356564;19;20035;-61
2022/05/10 11:37:35;;;;;;;0.10;0.10;;;;;;;25.77;33.01;100365.88;7354977;19;20038;-60
2022/05/10 11:40:26;;;;;;;0.00;0.00;;;;;;;25.99;33.18;100378.09;7355379;19;20002;-60
2022/05/10 11:43:10;;;;;;;0.10;0.10;;;;;;;26.03;32.96;100368.81;7362837;19;20131;-60
2022/05/10 11:45:53;;;;;;;0.03;0.03;;;;;;;25.95;32.21;100368.66;7361868;19;20954;-61
2022/05/10 11:48:22;;;;;;;0.10;0.10;;;;;;;26.03;31.68;100395.56;7369635;19;20023;-62
2022/05/10 11:53:52;;;;;;;0.03;0.03;;;;;;;26.25;30.21;100364.13;7269629;19;2004532;-60
2022/05/10 11:56:18;;;;;;;0.10;0.10;;;;;;;26.24;29.96;100349.06;7369978;19;20542;-62
2022/05/10 11:58:44;;;;;;;0.10;0.10;;;;;;;26.29;31.15;100369.03;7363401;19;20109;-60
2022/05/10 12:01:43;;;;;;;0.10;0.10;;;;;;;26.43;31.61;100386.53;7360811;19;20026;-60